Time;durP1;ratioP1;P1;durP2;ratioP2;P2;SDS_P1;SDS_P2;PMS_P1;PMS_P2;Temp;Humidity;BMP_temperature;BMP_pressure;BME280_temperature;BME280_humidity;BME280_pressure;Samples;Min_cycle;Max_cycle;Signal;HPM_P1;HPM_P2
2021/06/08 00:05:11;;;;;;;1.55;0.80;;;;;;;18.47;58.67;99965.81;4286271;33;31781;-76
2021/06/08 00:08:35;;;;;;;2.00;1.83;;;;;;;18.38;59.43;99965.09;4268548;33;34420;-75
2021/06/08 00:11:54;;;;;;;1.58;1.40;;;;;;;18.58;57.97;99966.16;4272939;33;34364;-77
2021/06/08 00:38:17;;;;;;;1.12;1.02;;;;;;;18.23;59.79;99949.97;4244113;33;34642;-76
2021/06/08 01:07:08;;;;;;;1.50;1.40;;;;;;;18.49;58.57;99940.34;4374915;32;34152;-75
2021/06/08 01:23:31;;;;;;;1.33;1.23;;;;;;;18.54;60.34;99939.78;4377921;32;33404;-77
2021/06/08 01:30:08;;;;;;;;;;;;;;;;;;;;;
2021/06/08 01:33:45;;;;;;;0.98;0.98;;;;;;;18.49;59.13;99940.34;4263456;33;32298;-76
2021/06/08 01:50:10;;;;;;;1.35;1.25;;;;;;;18.07;61.62;99966.34;4293183;33;32769;-76
2021/06/08 02:20:20;;;;;;;1.27;1.05;;;;;;;18.27;59.58;99965.56;4331336;33;33603;-77
2021/06/08 02:27:11;;;;;;;1.80;1.27;;;;;;;18.42;59.00;99973.66;4285787;33;36236;-78
2021/06/08 02:30:24;;;;;;;1.52;1.25;;;;;;;18.51;58.64;99967.12;4301098;33;33161;-75
2021/06/08 02:36:45;;;;;;;2.12;1.12;;;;;;;18.41;58.46;99966.59;4248048;33;33612;-77
2021/06/08 02:43:19;;;;;;;1.50;1.40;;;;;;;18.57;58.06;99964.50;4274228;33;33213;-78
2021/06/08 02:56:11;;;;;;;1.62;1.08;;;;;;;17.56;62.15;99961.88;4287807;33;33928;-77
2021/06/08 03:02:47;;;;;;;1.05;0.90;;;;;;;18.33;60.86;99964.81;4296904;33;34827;-79
2021/06/08 03:06:31;;;;;;;1.02;1.00;;;;;;;18.34;61.41;99969.19;4363905;32;34199;-76
2021/06/08 03:16:04;;;;;;;2.37;1.55;;;;;;;19.02;58.72;99958.72;4313184;33;35032;-77
2021/06/08 04:01:21;;;;;;;1.37;1.27;;;;;;;19.53;58.59;99975.56;4368226;32;33263;-77
2021/06/08 04:04:49;;;;;;;1.98;1.58;;;;;;;19.77;58.35;99975.94;4333381;33;33439;-77
2021/06/08 04:07:24;;;;;;;1.60;1.50;;;;;;;19.91;57.89;99974.12;4338667;27;33347;-77
2021/06/08 04:09:53;;;;;;;2.83;1.77;;;;;;;19.89;57.78;99976.19;4407617;32;33632;-76
2021/06/08 04:12:22;;;;;;;0.98;0.98;;;;;;;20.05;57.54;99974.03;4405320;32;33194;-77
2021/06/08 04:14:50;;;;;;;1.20;0.75;;;;;;;20.12;57.49;99977.63;4368978;32;33994;-77
2021/06/08 04:17:21;;;;;;;3.67;1.58;;;;;;;20.11;57.75;99978.63;4354139;32;34612;-77
2021/06/08 04:19:55;;;;;;;2.30;1.42;;;;;;;20.06;58.17;99973.00;4392336;32;34650;-76
2021/06/08 04:22:36;;;;;;;1.50;1.15;;;;;;;20.01;58.73;99971.91;4401529;32;33277;-76
2021/06/08 04:25:07;;;;;;;2.20;1.75;;;;;;;20.26;58.23;99976.63;4412141;32;33434;-76
2021/06/08 04:27:35;;;;;;;3.30;1.25;;;;;;;20.43;57.96;99974.38;4407101;32;34378;-76
2021/06/08 04:30:06;;;;;;;1.58;1.35;;;;;;;20.49;58.23;99971.69;4410911;32;35800;-76
2021/06/08 04:32:36;;;;;;;1.45;1.35;;;;;;;20.57;58.26;99971.53;4411437;32;33008;-76
2021/06/08 04:35:07;;;;;;;1.05;1.05;;;;;;;20.73;57.72;99979.28;4411119;32;33682;-76
2021/06/08 04:37:38;;;;;;;2.47;1.35;;;;;;;20.83;57.68;99972.44;4411022;32;35381;-76
2021/06/08 04:40:09;;;;;;;2.75;1.90;;;;;;;20.91;57.79;99976.84;4386172;32;33697;-77
2021/06/08 04:42:41;;;;;;;1.23;1.08;;;;;;;20.97;57.56;99973.31;4385562;32;33027;-77
2021/06/08 04:45:09;;;;;;;6.22;1.60;;;;;;;20.96;57.78;99967.06;4410839;32;33509;-76
2021/06/08 04:47:38;;;;;;;1.00;0.90;;;;;;;20.96;58.27;99975.19;4398443;32;34937;-76
2021/06/08 04:50:09;;;;;;;1.08;0.95;;;;;;;21.16;57.75;99980.63;4398097;32;34783;-76
2021/06/08 04:52:37;;;;;;;1.10;1.10;;;;;;;21.33;57.19;99979.19;4398744;32;32834;-77
2021/06/08 04:55:10;;;;;;;1.20;0.95;;;;;;;21.25;57.94;99982.09;4386103;32;32669;-76
2021/06/08 04:57:40;;;;;;;1.42;1.33;;;;;;;21.26;58.36;99987.28;4411624;32;34760;-76
2021/06/08 05:00:10;;;;;;;1.40;1.30;;;;;;;21.54;56.22;99982.47;4414098;32;34656;-77
2021/06/08 05:02:42;;;;;;;1.25;1.17;;;;;;;21.64;55.97;99987.47;4412677;32;33302;-77
2021/06/08 05:05:18;;;;;;;3.87;1.40;;;;;;;21.86;55.43;99986.22;4384787;32;33065;-76
2021/06/08 05:07:56;;;;;;;1.58;1.48;;;;;;;22.06;54.00;99985.13;4398293;32;36177;-77
2021/06/08 05:10:27;;;;;;;1.75;1.33;;;;;;;22.08;54.01;99983.03;4410825;32;34280;-77
2021/06/08 05:12:57;;;;;;;1.48;1.05;;;;;;;22.19;53.97;99985.06;4398253;32;34071;-76
2021/06/08 05:15:27;;;;;;;1.55;1.42;;;;;;;22.22;54.35;99987.38;4398095;32;35032;-76
2021/06/08 05:17:56;;;;;;;1.45;1.10;;;;;;;22.38;53.68;99991.47;4410044;32;35259;-76
2021/06/08 05:20:24;;;;;;;0.95;0.82;;;;;;;22.52;53.16;99988.53;4410682;32;34698;-76
2021/06/08 05:22:55;;;;;;;1.83;1.48;;;;;;;22.51;54.16;99988.72;4410923;32;32444;-76
2021/06/08 05:25:23;;;;;;;3.97;1.90;;;;;;;22.63;54.30;99990.53;4397833;32;33724;-76
2021/06/08 05:27:53;;;;;;;0.95;0.90;;;;;;;22.69;54.09;99989.69;4398149;32;35109;-76
2021/06/08 05:30:24;;;;;;;1.45;1.33;;;;;;;22.86;53.57;99998.12;4410463;32;34431;-76
2021/06/08 05:32:54;;;;;;;4.78;1.60;;;;;;;23.03;52.90;100005.53;4410810;32;32179;-76
2021/06/08 05:35:26;;;;;;;;;;;;;;;23.16;52.43;99994.63;4411029;32;32759;-76
2021/06/08 05:38:05;;;;;;;2.95;1.92;;;;;;;23.30;52.73;99990.75;4410295;32;36424;-76
2021/06/08 05:40:37;;;;;;;3.85;3.12;;;;;;;22.38;52.95;100002.31;4411238;32;34174;-76
2021/06/08 05:43:06;;;;;;;2.30;1.80;;;;;;;22.38;52.93;100005.84;4398392;32;33137;-76
2021/06/08 05:45:35;;;;;;;1.98;1.80;;;;;;;22.24;52.59;99996.13;4410717;32;34086;-76
2021/06/08 05:48:04;;;;;;;2.87;1.92;;;;;;;22.75;52.70;100002.38;4397778;32;34357;-76
2021/06/08 05:50:32;;;;;;;2.25;1.75;;;;;;;22.24;51.91;100004.25;4410383;32;33962;-76
2021/06/08 05:53:00;;;;;;;1.83;1.30;;;;;;;22.24;51.72;100009.66;4412074;32;33010;-78
2021/06/08 05:55:32;;;;;;;1.65;1.45;;;;;;;22.78;52.15;100006.53;4397248;32;33987;-79
2021/06/08 05:58:01;;;;;;;2.30;1.95;;;;;;;23.03;51.20;100002.81;4411993;32;34714;-79
2021/06/08 06:00:39;;;;;;;2.00;1.30;;;;;;;23.36;49.34;99998.03;4411988;32;35081;-79
2021/06/08 06:03:08;;;;;;;2.65;2.45;;;;;;;23.57;49.88;100008.50;4399249;32;33465;-79
2021/06/08 06:05:37;;;;;;;1.58;1.48;;;;;;;23.68;48.44;100007.75;4410712;32;34401;-79
2021/06/08 06:08:05;;;;;;;1.52;1.17;;;;;;;23.71;46.40;100003.78;4397015;32;31880;-79
2021/06/08 06:10:34;;;;;;;1.50;1.40;;;;;;;23.55;47.75;100009.75;4397951;32;32924;-77
2021/06/08 06:13:02;;;;;;;1.87;1.73;;;;;;;23.87;45.95;100013.03;4411944;32;33106;-78
2021/06/08 06:15:30;;;;;;;1.25;0.95;;;;;;;24.26;46.04;100007.19;4411255;32;33409;-78
2021/06/08 06:18:01;;;;;;;1.73;1.62;;;;;;;24.79;44.77;100010.09;4411311;32;34778;-78
2021/06/08 06:20:30;;;;;;;0.70;0.60;;;;;;;24.74;46.38;100013.50;4411532;32;34628;-78
2021/06/08 06:22:58;;;;;;;4.10;1.65;;;;;;;24.17;45.82;100013.97;4411602;32;33708;-78
2021/06/08 06:25:28;;;;;;;2.05;1.95;;;;;;;24.67;44.19;100007.31;4399411;32;32671;-78
2021/06/08 06:27:56;;;;;;;1.40;1.30;;;;;;;24.75;42.82;100004.28;4397704;32;35183;-78
2021/06/08 06:30:24;;;;;;;1.17;1.00;;;;;;;24.67;41.00;100011.94;4412312;32;34071;-78
2021/06/08 06:32:52;;;;;;;1.58;1.45;;;;;;;24.63;40.68;100010.75;4412614;32;33369;-77
2021/06/08 06:35:20;;;;;;;3.00;2.35;;;;;;;24.84;39.37;100013.78;4398532;32;33326;-78
2021/06/08 06:37:52;;;;;;;1.55;1.45;;;;;;;24.51;40.31;100015.25;4410905;32;34801;-78
2021/06/08 06:40:26;;;;;;;1.65;1.30;;;;;;;24.86;41.65;100010.84;4410770;32;33151;-78
2021/06/08 06:42:59;;;;;;;3.92;1.30;;;;;;;24.74;40.78;100013.50;4416103;32;33348;-78
2021/06/08 06:45:29;;;;;;;1.10;0.98;;;;;;;24.88;40.96;100017.72;4412847;32;33817;-78
2021/06/08 06:48:04;;;;;;;1.67;1.20;;;;;;;24.74;39.72;100010.78;4409713;32;35204;-78
2021/06/08 06:50:34;;;;;;;2.35;1.30;;;;;;;24.78;40.10;100013.87;4412577;32;33871;-78
2021/06/08 06:53:02;;;;;;;2.22;1.02;;;;;;;25.11;38.98;100019.69;4399920;32;32618;-78
2021/06/08 06:55:32;;;;;;;1.80;1.50;;;;;;;24.61;39.94;100015.56;4412545;32;33790;-78
2021/06/08 06:58:02;;;;;;;1.77;1.67;;;;;;;24.91;38.93;100014.53;4412232;32;34529;-78
2021/06/08 07:00:30;;;;;;;0.95;0.95;;;;;;;24.87;39.68;100012.50;4411789;32;34343;-78
2021/06/08 07:02:58;;;;;;;1.48;1.33;;;;;;;25.13;38.94;100007.47;4410692;32;32450;-78
2021/06/08 07:05:29;;;;;;;3.20;1.30;;;;;;;25.27;39.22;100008.16;4411092;32;33483;-78
2021/06/08 07:08:01;;;;;;;1.80;1.70;;;;;;;25.57;38.61;100015.19;4410863;32;36285;-78
2021/06/08 07:10:31;;;;;;;1.25;1.15;;;;;;;25.67;38.34;100011.91;4397698;32;34264;-78
2021/06/08 07:13:04;;;;;;;1.20;1.10;;;;;;;25.77;37.36;100012.12;4410161;32;33239;-79
2021/06/08 07:15:33;;;;;;;1.45;1.35;;;;;;;25.86;38.15;100008.81;4412114;32;33922;-78
2021/06/08 07:18:03;;;;;;;1.45;1.02;;;;;;;26.40;36.10;100013.06;4410398;32;34968;-78
2021/06/08 07:23:10;;;;;;;1.17;1.00;;;;;;;26.22;38.45;100014.03;4400882;27;33319;-77
2021/06/08 07:25:39;;;;;;;3.58;1.58;;;;;;;25.71;38.23;100016.63;4396443;32;33917;-76
2021/06/08 07:28:07;;;;;;;0.90;0.90;;;;;;;25.45;37.27;100016.22;4396413;32;34974;-78
2021/06/08 07:30:36;;;;;;;4.30;1.98;;;;;;;25.72;38.05;100015.56;4383727;32;34862;-77
2021/06/08 07:33:27;;;;;;;2.65;1.58;;;;;;;25.75;37.89;100023.25;4394925;32;34015;-77
2021/06/08 07:36:03;;;;;;;0.80;0.80;;;;;;;25.54;38.15;100017.56;4397267;32;34301;-78
2021/06/08 07:38:36;;;;;;;1.27;1.20;;;;;;;26.11;36.41;100028.50;4394371;32;34833;-76
2021/06/08 07:41:07;;;;;;;1.90;1.80;;;;;;;26.18;36.89;100020.19;4383701;32;34758;-76
2021/06/08 07:43:39;;;;;;;1.92;1.73;;;;;;;25.73;37.42;100030.00;4395882;32;33978;-76
2021/06/08 07:46:16;;;;;;;1.58;1.23;;;;;;;25.67;38.31;100030.97;4396169;32;33803;-75
2021/06/08 07:48:45;;;;;;;2.45;2.25;;;;;;;25.98;37.27;100025.19;4396409;32;35735;-78
2021/06/08 07:51:14;;;;;;;2.15;1.98;;;;;;;25.67;38.82;100017.34;4406126;32;34147;-76
2021/06/08 07:53:42;;;;;;;1.67;1.58;;;;;;;25.70;39.31;100019.59;4396103;32;32624;-76
2021/06/08 07:56:11;;;;;;;2.50;1.48;;;;;;;26.25;37.58;100019.00;4383494;32;33837;-76
2021/06/08 07:58:39;;;;;;;1.40;1.27;;;;;;;25.64;37.72;100015.91;4397433;32;34689;-75
2021/06/08 08:01:08;;;;;;;1.87;1.52;;;;;;;25.98;38.26;100019.75;4394239;32;34447;-78
2021/06/08 08:03:39;;;;;;;2.90;0.88;;;;;;;26.46;38.34;100020.25;4396223;32;33293;-78
2021/06/08 08:06:08;;;;;;;2.72;1.60;;;;;;;26.42;38.53;100019.09;4394899;32;34111;-78
2021/06/08 08:08:38;;;;;;;3.72;2.12;;;;;;;26.91;38.75;100018.50;4394418;32;35782;-78
2021/06/08 08:11:14;;;;;;;1.87;1.27;;;;;;;27.15;38.83;100015.44;4381378;32;34625;-77
2021/06/08 08:13:48;;;;;;;2.55;1.33;;;;;;;26.64;37.39;100018.25;4396635;32;33146;-77
2021/06/08 08:16:16;;;;;;;1.58;1.10;;;;;;;26.75;35.26;100022.84;4382991;32;33180;-76
2021/06/08 08:18:46;;;;;;;2.15;1.40;;;;;;;26.62;35.19;100016.81;4386467;32;34891;-77
2021/06/08 08:21:17;;;;;;;2.55;1.20;;;;;;;26.44;36.99;100017.78;4393764;32;33783;-77
2021/06/08 08:23:45;;;;;;;3.15;1.98;;;;;;;26.36;33.74;100018.16;4387975;32;33157;-76
2021/06/08 08:26:14;;;;;;;1.83;1.67;;;;;;;27.24;34.78;100008.50;4380287;32;34615;-75
2021/06/08 08:28:43;;;;;;;1.73;1.62;;;;;;;27.55;32.45;100011.50;4391339;32;35449;-76
2021/06/08 08:31:14;;;;;;;2.75;1.40;;;;;;;27.78;34.54;100016.00;4381854;32;33938;-77
2021/06/08 08:33:43;;;;;;;2.17;1.85;;;;;;;27.09;34.92;100016.37;4381711;32;33414;-75
2021/06/08 08:36:12;;;;;;;1.77;1.62;;;;;;;26.85;34.47;100014.84;4382584;32;33696;-77
2021/06/08 08:38:40;;;;;;;2.20;1.12;;;;;;;27.10;36.50;100016.13;4380944;32;34433;-78
2021/06/08 08:41:09;;;;;;;1.50;1.40;;;;;;;27.89;33.21;100020.53;4380259;32;34984;-76
2021/06/08 08:43:47;;;;;;;9.88;2.17;;;;;;;26.83;33.05;100014.25;4393954;32;34723;-76
2021/06/08 08:46:16;;;;;;;2.05;1.85;;;;;;;27.53;33.78;100010.94;4394455;32;33076;-76
2021/06/08 08:48:47;;;;;;;1.33;1.25;;;;;;;26.83;34.24;100013.41;4393308;32;34224;-77
2021/06/08 08:51:16;;;;;;;1.92;1.62;;;;;;;28.04;33.04;100018.03;4396148;32;33644;-78
2021/06/08 08:53:44;;;;;;;1.35;1.25;;;;;;;28.44;34.45;100011.25;4381193;32;33104;-77
2021/06/08 08:56:27;;;;;;;1.42;1.27;;;;;;;28.97;31.94;100011.34;4384043;32;33663;-77
2021/06/08 08:58:55;;;;;;;0.80;0.80;;;;;;;27.78;31.69;100014.06;4384739;32;34420;-78
2021/06/08 09:01:23;;;;;;;1.83;1.73;;;;;;;28.00;31.42;100009.50;4395099;32;34116;-77
2021/06/08 09:03:52;;;;;;;1.37;1.23;;;;;;;27.92;32.01;100014.56;4383037;32;34650;-77
2021/06/08 09:06:21;;;;;;;1.90;1.80;;;;;;;28.33;31.84;100011.34;4382003;32;32793;-78
2021/06/08 09:08:49;;;;;;;2.03;1.60;;;;;;;27.13;34.25;100007.47;4394419;32;34506;-78
2021/06/08 09:11:18;;;;;;;1.20;1.10;;;;;;;28.05;34.26;100020.50;4393011;32;35059;-78
2021/06/08 09:13:47;;;;;;;1.52;1.45;;;;;;;28.29;35.65;100001.97;4382499;32;34096;-78
2021/06/08 09:16:15;;;;;;;2.40;2.10;;;;;;;28.34;35.86;100002.87;4395781;32;34620;-78
2021/06/08 09:18:44;;;;;;;1.35;1.20;;;;;;;28.05;33.81;100012.31;4381705;32;33101;-78
2021/06/08 09:21:24;;;;;;;2.17;2.08;;;;;;;28.44;34.72;100007.69;4393250;32;35568;-79
2021/06/08 09:23:52;;;;;;;4.30;1.40;;;;;;;28.90;34.60;99998.91;4381109;32;32862;-79
2021/06/08 09:26:20;;;;;;;1.55;1.45;;;;;;;28.74;36.24;100006.13;4396303;32;34833;-77
2021/06/08 09:28:48;;;;;;;2.95;1.55;;;;;;;28.94;35.17;100006.41;4384986;32;34688;-78
2021/06/08 09:31:23;;;;;;;4.55;1.52;;;;;;;28.85;34.22;99998.84;4396081;32;35621;-78
2021/06/08 09:33:53;;;;;;;1.35;1.25;;;;;;;29.10;34.09;100001.88;4410090;32;33071;-78
2021/06/08 09:36:27;;;;;;;4.85;1.70;;;;;;;28.34;34.24;99999.34;4381989;32;34864;-78
2021/06/08 09:39:00;;;;;;;2.03;1.87;;;;;;;28.90;34.90;99993.44;4397959;32;35082;-78
2021/06/08 09:41:33;;;;;;;1.90;1.80;;;;;;;29.06;35.44;99998.84;4398667;32;33813;-78
2021/06/08 09:44:09;;;;;;;2.05;1.48;;;;;;;29.05;36.08;99994.44;4407103;32;32834;-78
2021/06/08 09:46:55;;;;;;;1.75;1.10;;;;;;;29.28;35.88;99987.81;4383084;32;33613;-79
2021/06/08 09:49:26;;;;;;;1.75;1.37;;;;;;;29.18;34.12;99990.47;4395254;32;35814;-78
2021/06/08 09:52:06;;;;;;;1.92;1.62;;;;;;;29.46;33.19;99984.69;4397787;32;34237;-78
2021/06/08 09:54:38;;;;;;;1.87;1.77;;;;;;;29.42;33.22;99978.09;4396834;32;32949;-78
2021/06/08 09:57:28;;;;;;;0.85;0.85;;;;;;;29.64;33.35;99982.38;4396748;32;33323;-79
2021/06/08 09:59:58;;;;;;;1.30;1.15;;;;;;;29.67;34.23;99987.38;4397746;32;34671;-78
2021/06/08 10:02:32;;;;;;;1.40;1.30;;;;;;;29.80;31.35;99981.41;4397444;32;33798;-78
2021/06/08 10:05:15;;;;;;;1.75;1.65;;;;;;;29.82;32.77;99978.41;4393019;32;34208;-79
2021/06/08 10:07:43;;;;;;;1.50;0.98;;;;;;;29.65;32.59;99975.84;4397703;32;33700;-78
2021/06/08 10:10:17;;;;;;;2.28;1.95;;;;;;;29.90;33.05;99977.91;4384506;32;34554;-79
2021/06/08 10:13:03;;;;;;;2.55;1.75;;;;;;;30.01;32.11;99974.94;4397379;32;34220;-78
2021/06/08 10:15:52;;;;;;;1.52;1.37;;;;;;;29.71;31.46;99972.03;4390020;32;35370;-79
2021/06/08 10:18:20;;;;;;;1.48;1.37;;;;;;;28.82;29.97;99972.81;4396522;32;33023;-79
2021/06/08 10:20:58;;;;;;;2.75;2.10;;;;;;;29.42;31.45;99975.34;4395406;32;35803;-79
2021/06/08 10:23:33;;;;;;;2.25;1.65;;;;;;;30.00;33.52;99962.31;4395447;32;33330;-78
2021/06/08 10:26:06;;;;;;;1.60;1.50;;;;;;;29.21;31.89;99976.22;4397572;32;32931;-79
2021/06/08 10:28:34;;;;;;;0.80;0.80;;;;;;;30.35;31.97;99970.78;4397960;32;33664;-79
2021/06/08 10:31:03;;;;;;;2.62;1.90;;;;;;;30.15;31.21;99964.34;4383619;32;34975;-80
2021/06/08 10:33:51;;;;;;;2.78;1.30;;;;;;;30.28;29.55;99964.69;4396741;32;32393;-78
2021/06/08 10:36:29;;;;;;;1.52;1.42;;;;;;;30.89;30.87;99961.09;4384608;32;32463;-79
2021/06/08 10:38:58;;;;;;;1.50;1.42;;;;;;;29.85;30.41;99966.91;4385241;32;34440;-78
2021/06/08 10:41:27;;;;;;;1.40;1.15;;;;;;;29.21;28.82;99968.84;4395850;32;34740;-79
2021/06/08 10:43:55;;;;;;;1.73;1.62;;;;;;;29.96;31.41;99961.22;4395811;32;33875;-79
2021/06/08 10:46:30;;;;;;;4.57;1.58;;;;;;;30.51;31.00;99962.31;4382435;32;33171;-79
2021/06/08 10:49:06;;;;;;;1.62;1.52;;;;;;;30.71;28.61;99954.19;4390884;32;34212;-79
2021/06/08 10:51:35;;;;;;;1.42;1.33;;;;;;;31.05;29.60;99951.78;4385126;32;34190;-78
2021/06/08 10:54:16;;;;;;;1.27;1.10;;;;;;;31.64;28.61;99952.91;4381585;32;33602;-78
2021/06/08 10:56:58;;;;;;;4.03;1.90;;;;;;;32.09;28.55;99956.41;4397075;32;33643;-79
2021/06/08 10:59:50;;;;;;;1.45;1.35;;;;;;;32.29;26.18;99953.63;4384330;32;33286;-79
2021/06/08 11:02:41;;;;;;;2.30;2.12;;;;;;;31.42;25.86;99950.44;4394140;32;36002;-79
2021/06/08 11:05:09;;;;;;;3.28;1.67;;;;;;;32.10;28.21;99960.00;4395891;32;34133;-79
2021/06/08 11:07:50;;;;;;;1.42;1.33;;;;;;;30.83;27.45;99949.28;4385004;32;33667;-80
2021/06/08 11:10:25;;;;;;;1.30;1.20;;;;;;;31.23;27.56;99945.81;4383844;32;34621;-79
2021/06/08 11:13:08;;;;;;;2.00;1.80;;;;;;;31.31;25.96;99943.31;4395690;32;34465;-80
2021/06/08 11:15:40;;;;;;;2.25;2.05;;;;;;;32.05;28.40;99940.75;4395488;32;35316;-80
2021/06/08 11:18:17;;;;;;;1.92;1.73;;;;;;;32.30;27.53;99940.69;4396350;32;33154;-79
2021/06/08 11:20:47;;;;;;;1.67;1.58;;;;;;;33.55;27.47;99931.63;4394902;32;32396;-78
2021/06/08 11:23:44;;;;;;;3.65;2.28;;;;;;;33.88;23.85;99934.38;4396195;32;35424;-80
2021/06/08 11:26:17;;;;;;;1.62;1.52;;;;;;;34.12;26.50;99937.94;4386508;32;34155;-80
2021/06/08 11:28:49;;;;;;;1.92;1.83;;;;;;;34.29;25.29;99932.81;4397751;32;33268;-79
2021/06/08 11:31:23;;;;;;;1.95;1.77;;;;;;;34.42;24.93;99932.06;4383219;32;32408;-79
2021/06/08 11:34:03;;;;;;;2.45;1.62;;;;;;;35.11;25.48;99932.22;4396410;32;34781;-79
2021/06/08 11:36:33;;;;;;;2.37;2.28;;;;;;;34.77;23.33;99928.84;4396086;32;33976;-80
2021/06/08 11:39:23;;;;;;;2.10;1.92;;;;;;;35.23;24.93;99927.91;4384024;32;34051;-80
2021/06/08 11:42:01;;;;;;;2.50;2.30;;;;;;;35.51;23.66;99920.50;4394963;32;34776;-79
2021/06/08 11:44:29;;;;;;;2.35;2.15;;;;;;;35.55;21.71;99924.28;4399750;32;35348;-80
2021/06/08 11:47:02;;;;;;;3.20;2.30;;;;;;;36.10;22.31;99926.03;4382592;32;33971;-81
2021/06/08 11:49:31;;;;;;;2.00;1.90;;;;;;;36.36;21.83;99919.69;4384100;32;33313;-81
2021/06/08 11:51:59;;;;;;;2.85;2.12;;;;;;;36.52;21.23;99912.69;4395107;32;32436;-80
2021/06/08 11:54:27;;;;;;;1.95;1.85;;;;;;;35.74;21.55;99914.81;4395554;32;34316;-81
2021/06/08 11:57:00;;;;;;;2.28;1.75;;;;;;;35.92;19.46;99910.31;4407949;32;35686;-81
2021/06/08 11:59:43;;;;;;;1.50;1.40;;;;;;;35.44;19.22;99906.22;4395461;32;33279;-83
2021/06/08 12:02:33;;;;;;;1.85;1.75;;;;;;;34.88;21.79;99908.22;4396553;32;34911;-82
2021/06/08 12:05:25;;;;;;;1.30;1.20;;;;;;;35.16;22.49;99907.22;4396293;32;34958;-82
2021/06/08 12:08:02;;;;;;;1.83;1.73;;;;;;;34.84;21.66;99899.72;4383762;32;33689;-81
2021/06/08 12:10:31;;;;;;;1.65;1.55;;;;;;;34.78;23.59;99902.84;4395848;32;33576;-82
2021/06/08 12:13:00;;;;;;;1.58;1.48;;;;;;;32.58;20.86;99910.53;4396079;32;35016;-82
2021/06/08 12:15:31;;;;;;;1.80;1.70;;;;;;;31.25;23.23;99905.91;4383712;32;35649;-80
2021/06/08 12:18:01;;;;;;;1.90;1.80;;;;;;;32.92;22.63;99913.38;4382640;32;147071;-82
2021/06/08 12:20:30;;;;;;;1.85;1.75;;;;;;;32.20;23.50;99899.41;4395576;32;34090;-80
2021/06/08 12:22:59;;;;;;;2.10;2.00;;;;;;;32.85;23.09;99901.84;4397716;32;34268;-81
2021/06/08 12:25:46;;;;;;;3.97;2.53;;;;;;;33.68;22.91;99895.06;4386527;32;33509;-80
2021/06/08 12:28:14;;;;;;;1.75;1.65;;;;;;;33.91;24.96;99891.53;4371211;32;32644;-81
2021/06/08 12:30:41;;;;;;;2.50;2.25;;;;;;;34.24;23.89;99886.72;4384009;32;32806;-81
2021/06/08 12:33:09;;;;;;;2.35;1.95;;;;;;;34.21;23.01;99887.34;4383926;32;34743;-80
2021/06/08 12:35:46;;;;;;;2.05;1.95;;;;;;;34.23;24.20;99890.62;4396105;32;34826;-80
2021/06/08 12:38:22;;;;;;;1.75;1.65;;;;;;;34.62;24.60;99879.28;4396192;32;34541;-80
2021/06/08 12:41:02;;;;;;;1.62;1.52;;;;;;;34.94;24.37;99879.37;4383875;32;32923;-80
2021/06/08 12:43:51;;;;;;;2.08;1.60;;;;;;;34.27;22.70;99874.28;4396116;32;34245;-80
2021/06/08 12:46:28;;;;;;;2.33;2.20;;;;;;;34.96;22.41;99875.19;4376214;32;34149;-80
2021/06/08 12:49:16;;;;;;;1.65;1.55;;;;;;;34.28;22.70;99876.72;4383886;32;35059;-80
2021/06/08 12:51:45;;;;;;;2.10;1.90;;;;;;;34.61;24.16;99869.34;4388432;32;34616;-80
2021/06/08 12:54:34;;;;;;;2.15;2.05;;;;;;;35.09;24.86;99868.88;4396206;32;34035;-80
2021/06/08 12:57:24;;;;;;;1.58;1.48;;;;;;;34.69;20.32;99866.75;4395168;32;35475;-81
2021/06/08 13:00:17;;;;;;;2.85;2.08;;;;;;;34.65;22.77;99873.19;4395127;32;34341;-80
2021/06/08 13:02:48;;;;;;;1.80;1.70;;;;;;;33.89;22.80;99877.19;4384856;32;32915;-80
2021/06/08 13:05:20;;;;;;;1.67;1.58;;;;;;;33.99;24.20;99873.19;4385472;32;33725;-80
2021/06/08 13:07:51;;;;;;;1.67;1.58;;;;;;;33.89;23.80;99872.53;4402894;32;35420;-81
2021/06/08 13:10:25;;;;;;;2.37;2.05;;;;;;;33.98;25.78;99871.56;4394526;32;33426;-79
2021/06/08 13:12:55;;;;;;;2.20;2.10;;;;;;;34.07;25.95;99866.22;4410064;32;32864;-79
2021/06/08 13:15:47;;;;;;;2.10;1.92;;;;;;;33.79;26.74;99864.34;4393729;32;33455;-80
2021/06/08 13:18:17;;;;;;;2.03;1.83;;;;;;;33.91;26.20;99862.00;4383545;32;34452;-79
2021/06/08 13:20:46;;;;;;;2.28;2.08;;;;;;;34.17;24.86;99864.13;4396668;32;34882;-81
2021/06/08 13:23:29;;;;;;;1.33;1.25;;;;;;;34.59;26.28;99860.53;4397964;32;34230;-79
2021/06/08 13:26:08;;;;;;;1.55;1.45;;;;;;;33.69;24.45;99855.31;4398076;32;33432;-80
2021/06/08 13:28:38;;;;;;;1.27;1.23;;;;;;;34.14;23.20;99861.13;4396777;32;35664;-80
2021/06/08 13:31:19;;;;;;;2.42;2.22;;;;;;;34.61;24.94;99859.13;4396430;32;34134;-80
2021/06/08 13:33:48;;;;;;;2.00;1.90;;;;;;;34.99;23.46;99851.63;4397420;32;34005;-81
2021/06/08 13:36:44;;;;;;;1.98;1.25;;;;;;;35.31;24.45;99854.44;4397365;32;33510;-81
2021/06/08 13:39:22;;;;;;;1.70;1.60;;;;;;;34.69;20.79;99841.87;4381316;32;34775;-78
2021/06/08 13:41:54;;;;;;;1.98;1.65;;;;;;;35.32;23.46;99847.78;4409101;32;32722;-78
2021/06/08 13:44:24;;;;;;;2.03;1.83;;;;;;;34.91;23.57;99850.38;4384120;32;33181;-78
2021/06/08 13:46:59;;;;;;;1.62;1.48;;;;;;;35.04;23.30;99846.03;4397749;32;33820;-78
2021/06/08 13:49:44;;;;;;;1.60;1.50;;;;;;;34.48;22.49;99839.72;4384475;32;35891;-79
2021/06/08 13:52:12;;;;;;;1.17;1.17;;;;;;;34.62;21.09;99835.06;4383736;32;34699;-80
2021/06/08 13:54:40;;;;;;;1.33;1.10;;;;;;;34.60;21.32;99829.84;4384316;32;32686;-80
2021/06/08 14:02:49;;;;;;;1.40;1.30;;;;;;;34.20;21.18;99826.81;4396659;32;34623;-80
2021/06/08 14:05:25;;;;;;;1.10;1.08;;;;;;;34.02;24.48;99830.38;4396454;32;33841;-80
2021/06/08 14:07:57;;;;;;;1.20;1.10;;;;;;;34.76;23.16;99833.22;4394311;32;33412;-80
2021/06/08 14:10:27;;;;;;;1.73;1.48;;;;;;;35.07;22.25;99821.34;4383755;32;35349;-78
2021/06/08 14:13:01;;;;;;;1.73;1.62;;;;;;;34.84;21.37;99816.75;4398043;32;33626;-80
2021/06/08 14:15:34;;;;;;;0.98;0.98;;;;;;;34.23;22.63;99826.25;4397513;32;32669;-80
2021/06/08 14:18:03;;;;;;;1.00;1.00;;;;;;;34.58;22.76;99825.75;4396979;32;33390;-81
2021/06/08 14:20:32;;;;;;;1.25;1.17;;;;;;;34.03;21.52;99822.94;4396086;32;35718;-80
2021/06/08 14:23:03;;;;;;;0.95;0.95;;;;;;;34.84;21.72;99816.75;4397309;32;34153;-81
2021/06/08 14:25:39;;;;;;;1.40;1.25;;;;;;;34.66;20.60;99816.78;4396420;32;33630;-81
2021/06/08 14:28:12;;;;;;;1.30;1.20;;;;;;;33.86;21.37;99811.53;4398058;32;34964;-81
2021/06/08 14:30:49;;;;;;;1.50;1.40;;;;;;;34.54;22.10;99799.84;4383020;32;35371;-80
2021/06/08 14:33:25;;;;;;;1.35;1.25;;;;;;;34.07;23.85;99809.03;4396596;32;33391;-80
2021/06/08 14:35:55;;;;;;;0.70;0.70;;;;;;;34.32;20.39;99805.13;4395094;32;32871;-81
2021/06/08 14:38:37;;;;;;;1.00;1.00;;;;;;;33.83;20.59;99812.97;4384098;32;32119;-80
2021/06/08 14:41:10;;;;;;;0.85;0.85;;;;;;;34.45;23.31;99807.16;4383526;32;35232;-80
2021/06/08 14:43:50;;;;;;;1.17;1.10;;;;;;;34.58;21.92;99807.22;4408830;32;33750;-81
2021/06/08 14:46:24;;;;;;;1.50;1.40;;;;;;;34.03;20.80;99815.44;4396346;32;32666;-81
2021/06/08 14:49:00;;;;;;;1.23;1.08;;;;;;;33.99;20.58;99814.41;4384361;32;32855;-81
2021/06/08 14:51:38;;;;;;;1.30;1.27;;;;;;;33.68;20.63;99806.78;4395476;32;35727;-81
2021/06/08 14:54:23;;;;;;;1.60;1.50;;;;;;;33.32;20.95;99800.00;4397567;32;33773;-81
2021/06/08 14:57:01;;;;;;;1.15;0.90;;;;;;;33.03;21.99;99799.16;4386288;32;31827;-81
2021/06/08 14:59:35;;;;;;;0.93;0.93;;;;;;;33.28;21.52;99794.25;4396674;32;33889;-82
2021/06/08 15:02:15;;;;;;;1.05;1.05;;;;;;;33.16;21.25;99796.56;4384459;32;36228;-81
2021/06/08 15:04:55;;;;;;;0.80;0.80;;;;;;;33.95;22.37;99795.97;4384471;32;32360;-81
2021/06/08 15:07:29;;;;;;;0.95;0.95;;;;;;;33.84;19.79;99792.50;4396509;32;33173;-81
2021/06/08 15:10:15;;;;;;;1.23;1.05;;;;;;;34.18;20.51;99785.69;4372181;32;33964;-81
2021/06/08 15:12:46;;;;;;;0.73;0.73;;;;;;;33.97;20.20;99779.94;4383062;32;35308;-81
2021/06/08 15:15:16;;;;;;;0.85;0.77;;;;;;;34.39;21.28;99776.03;4396421;32;33868;-81
2021/06/08 15:17:45;;;;;;;0.70;0.70;;;;;;;34.39;18.63;99780.72;4383371;32;32370;-81
2021/06/08 15:20:14;;;;;;;0.77;0.77;;;;;;;33.48;18.51;99769.19;4371188;32;32182;-80
2021/06/08 15:22:42;;;;;;;0.80;0.70;;;;;;;33.29;18.62;99773.00;4384289;32;36140;-80